sensor_id;sensor_type;location;lat;lon;timestamp;pressure;altitude;pressure_sealevel;temperature;humidity
71735;BME280;59577;52.122;5.406;2023-02-28T00:00:35;103297.84;;;0.29;87.88
71735;BME280;59577;52.122;5.406;2023-02-28T00:03:02;103284.94;;;0.33;88.13
71735;BME280;59577;52.122;5.406;2023-02-28T00:05:29;103286.91;;;0.37;88.09
71735;BME280;59577;52.122;5.406;2023-02-28T00:07:56;103287.72;;;0.38;87.88
71735;BME280;59577;52.122;5.406;2023-02-28T00:10:29;103289.16;;;0.41;88.26
71735;BME280;59577;52.122;5.406;2023-02-28T00:13:00;103293.19;;;0.43;88.42
71735;BME280;59577;52.122;5.406;2023-02-28T00:15:27;103301.34;;;0.48;88.15
71735;BME280;59577;52.122;5.406;2023-02-28T00:17:54;103297.44;;;0.51;87.98
71735;BME280;59577;52.122;5.406;2023-02-28T00:20:21;103300.47;;;0.54;87.77
71735;BME280;59577;52.122;5.406;2023-02-28T00:22:51;103300.03;;;0.58;88.26
71735;BME280;59577;52.122;5.406;2023-02-28T00:25:21;103303.88;;;0.62;88.38
71735;BME280;59577;52.122;5.406;2023-02-28T00:27:49;103292.19;;;0.63;88.16
71735;BME280;59577;52.122;5.406;2023-02-28T00:30:18;103303.22;;;0.66;88.36
71735;BME280;59577;52.122;5.406;2023-02-28T00:32:46;103297.44;;;0.69;88.26
71735;BME280;59577;52.122;5.406;2023-02-28T00:35:12;103293.50;;;0.72;88.36
71735;BME280;59577;52.122;5.406;2023-02-28T00:37:39;103291.19;;;0.75;88.07
71735;BME280;59577;52.122;5.406;2023-02-28T00:40:06;103287.50;;;0.77;88.30
71735;BME280;59577;52.122;5.406;2023-02-28T00:42:34;103295.88;;;0.80;88.33
71735;BME280;59577;52.122;5.406;2023-02-28T00:45:02;103293.78;;;0.82;88.64
71735;BME280;59577;52.122;5.406;2023-02-28T00:47:31;103291.72;;;0.84;88.30
71735;BME280;59577;52.122;5.406;2023-02-28T00:49:58;103292.06;;;0.88;88.44
71735;BME280;59577;52.122;5.406;2023-02-28T00:52:25;103288.16;;;0.90;88.54
71735;BME280;59577;52.122;5.406;2023-02-28T00:54:51;103285.25;;;0.92;88.58
71735;BME280;59577;52.122;5.406;2023-02-28T00:57:18;103292.56;;;0.97;88.31
71735;BME280;59577;52.122;5.406;2023-02-28T00:59:44;103291.53;;;0.98;88.50
71735;BME280;59577;52.122;5.406;2023-02-28T01:02:11;103287.00;;;0.98;88.80
71735;BME280;59577;52.122;5.406;2023-02-28T01:04:37;103286.78;;;1.00;88.48
71735;BME280;59577;52.122;5.406;2023-02-28T01:07:04;103295.97;;;1.04;88.97
71735;BME280;59577;52.122;5.406;2023-02-28T01:09:30;103291.81;;;1.08;88.83
71735;BME280;59577;52.122;5.406;2023-02-28T01:11:57;103290.91;;;1.14;88.74
71735;BME280;59577;52.122;5.406;2023-02-28T01:14:24;103301.69;;;1.19;88.49
71735;BME280;59577;52.122;5.406;2023-02-28T01:16:50;103298.59;;;1.22;88.66
71735;BME280;59577;52.122;5.406;2023-02-28T01:19:17;103292.59;;;1.27;88.65
71735;BME280;59577;52.122;5.406;2023-02-28T01:21:44;103287.59;;;1.30;88.51
71735;BME280;59577;52.122;5.406;2023-02-28T01:24:10;103295.16;;;1.34;88.38
71735;BME280;59577;52.122;5.406;2023-02-28T01:26:37;103290.41;;;1.36;88.43
71735;BME280;59577;52.122;5.406;2023-02-28T01:29:04;103278.66;;;1.37;88.19
71735;BME280;59577;52.122;5.406;2023-02-28T01:31:30;103284.63;;;1.39;88.50
71735;BME280;59577;52.122;5.406;2023-02-28T01:33:57;103278.00;;;1.41;88.20
71735;BME280;59577;52.122;5.406;2023-02-28T01:36:24;103280.44;;;1.43;88.14
71735;BME280;59577;52.122;5.406;2023-02-28T01:38:51;103285.53;;;1.44;88.11
71735;BME280;59577;52.122;5.406;2023-02-28T01:41:22;103278.34;;;1.45;88.08
71735;BME280;59577;52.122;5.406;2023-02-28T01:46:16;103276.25;;;1.47;87.91
71735;BME280;59577;52.122;5.406;2023-02-28T01:51:35;103275.00;;;1.49;87.93
71735;BME280;59577;52.122;5.406;2023-02-28T01:54:07;103273.94;;;1.50;87.85
71735;BME280;59577;52.122;5.406;2023-02-28T01:56:43;103275.59;;;1.52;87.76
71735;BME280;59577;52.122;5.406;2023-02-28T01:59:14;103264.91;;;1.52;87.56
71735;BME280;59577;52.122;5.406;2023-02-28T02:01:43;103258.75;;;1.51;87.61
71735;BME280;59577;52.122;5.406;2023-02-28T02:04:10;103256.09;;;1.51;87.93
71735;BME280;59577;52.122;5.406;2023-02-28T02:06:41;103257.69;;;1.52;87.85
71735;BME280;59577;52.122;5.406;2023-02-28T02:09:08;103257.69;;;1.52;87.82
71735;BME280;59577;52.122;5.406;2023-02-28T02:11:35;103246.78;;;1.54;87.90
71735;BME280;59577;52.122;5.406;2023-02-28T02:36:01;103256.09;;;1.75;87.52
71735;BME280;59577;52.122;5.406;2023-02-28T02:38:44;103252.41;;;1.76;87.38
71735;BME280;59577;52.122;5.406;2023-02-28T02:41:24;103254.25;;;1.75;87.41
71735;BME280;59577;52.122;5.406;2023-02-28T02:43:57;103252.41;;;1.76;87.46
71735;BME280;59577;52.122;5.406;2023-02-28T02:46:45;103243.59;;;1.75;87.28
71735;BME280;59577;52.122;5.406;2023-02-28T02:49:16;103249.94;;;1.74;87.71
71735;BME280;59577;52.122;5.406;2023-02-28T02:51:47;103254.25;;;1.75;87.77
71735;BME280;59577;52.122;5.406;2023-02-28T02:54:15;103251.38;;;1.77;87.57
71735;BME280;59577;52.122;5.406;2023-02-28T02:56:47;103254.03;;;1.77;87.65
71735;BME280;59577;52.122;5.406;2023-02-28T02:59:18;103244.97;;;1.78;88.11
71735;BME280;59577;52.122;5.406;2023-02-28T03:01:57;103247.63;;;1.78;87.95
71735;BME280;59577;52.122;5.406;2023-02-28T03:04:26;103252.75;;;1.79;88.11
71735;BME280;59577;52.122;5.406;2023-02-28T03:06:55;103256.47;;;1.78;88.27
71735;BME280;59577;52.122;5.406;2023-02-28T03:09:22;103248.22;;;1.80;88.43
71735;BME280;59577;52.122;5.406;2023-02-28T03:11:51;103262.63;;;1.79;88.53
71735;BME280;59577;52.122;5.406;2023-02-28T03:17:23;103250.66;;;1.81;88.81
71735;BME280;59577;52.122;5.406;2023-02-28T03:20:02;103251.22;;;1.83;89.02
71735;BME280;59577;52.122;5.406;2023-02-28T03:22:57;103251.00;;;1.85;88.97
71735;BME280;59577;52.122;5.406;2023-02-28T03:28:35;103253.66;;;1.85;88.77
71735;BME280;59577;52.122;5.406;2023-02-28T03:33:51;103251.81;;;1.85;89.35
71735;BME280;59577;52.122;5.406;2023-02-28T03:36:30;103257.97;;;1.86;89.53
71735;BME280;59577;52.122;5.406;2023-02-28T03:39:00;103255.06;;;1.87;89.34
71735;BME280;59577;52.122;5.406;2023-02-28T03:41:52;103261.78;;;1.90;89.46
71735;BME280;59577;52.122;5.406;2023-02-28T03:44:27;103258.31;;;1.90;89.19
71735;BME280;59577;52.122;5.406;2023-02-28T03:47:03;103269.56;;;1.92;89.40
71735;BME280;59577;52.122;5.406;2023-02-28T03:49:36;103267.13;;;1.90;89.43
71735;BME280;59577;52.122;5.406;2023-02-28T03:52:06;103265.28;;;1.91;89.33
71735;BME280;59577;52.122;5.406;2023-02-28T03:54:41;103269.81;;;1.90;89.27
71735;BME280;59577;52.122;5.406;2023-02-28T04:00:21;103282.34;;;1.90;88.94
71735;BME280;59577;52.122;5.406;2023-02-28T04:02:53;103274.34;;;1.90;88.60
71735;BME280;59577;52.122;5.406;2023-02-28T04:05:21;103270.28;;;1.87;88.50
71735;BME280;59577;52.122;5.406;2023-02-28T04:07:48;103262.28;;;1.87;88.15
71735;BME280;59577;52.122;5.406;2023-02-28T04:10:16;103271.31;;;1.86;87.99
71735;BME280;59577;52.122;5.406;2023-02-28T04:12:42;103278.75;;;1.84;87.93
71735;BME280;59577;52.122;5.406;2023-02-28T04:15:09;103281.66;;;1.82;87.86
71735;BME280;59577;52.122;5.406;2023-02-28T04:17:37;103283.75;;;1.80;87.18
71735;BME280;59577;52.122;5.406;2023-02-28T04:20:04;103286.88;;;1.77;85.37
71735;BME280;59577;52.122;5.406;2023-02-28T04:22:36;103278.53;;;1.74;83.06
71735;BME280;59577;52.122;5.406;2023-02-28T04:25:04;103282.66;;;1.69;80.89
71735;BME280;59577;52.122;5.406;2023-02-28T04:27:32;103291.16;;;1.66;80.29
71735;BME280;59577;52.122;5.406;2023-02-28T04:29:58;103290.59;;;1.64;80.03
71735;BME280;59577;52.122;5.406;2023-02-28T04:32:25;103286.50;;;1.62;79.51
71735;BME280;59577;52.122;5.406;2023-02-28T04:34:51;103289.63;;;1.59;79.19
71735;BME280;59577;52.122;5.406;2023-02-28T04:37:18;103294.38;;;1.57;79.10
71735;BME280;59577;52.122;5.406;2023-02-28T04:39:44;103290.09;;;1.56;79.03
71735;BME280;59577;52.122;5.406;2023-02-28T04:42:11;103291.94;;;1.55;78.97
71735;BME280;59577;52.122;5.406;2023-02-28T04:44:38;103293.22;;;1.53;78.84
71735;BME280;59577;52.122;5.406;2023-02-28T04:47:05;103299.59;;;1.52;78.84
71735;BME280;59577;52.122;5.406;2023-02-28T04:49:31;103292.63;;;1.50;78.78
71735;BME280;59577;52.122;5.406;2023-02-28T04:51:58;103291.25;;;1.48;79.17
71735;BME280;59577;52.122;5.406;2023-02-28T04:54:24;103289.84;;;1.45;79.16
71735;BME280;59577;52.122;5.406;2023-02-28T04:56:51;103281.84;;;1.45;79.69
71735;BME280;59577;52.122;5.406;2023-02-28T04:59:17;103290.66;;;1.46;79.55
71735;BME280;59577;52.122;5.406;2023-02-28T05:01:48;103290.53;;;1.41;79.42
71735;BME280;59577;52.122;5.406;2023-02-28T05:04:15;103290.53;;;1.41;79.81
71735;BME280;59577;52.122;5.406;2023-02-28T05:06:41;103288.66;;;1.41;80.57
71735;BME280;59577;52.122;5.406;2023-02-28T05:09:07;103286.31;;;1.33;80.88
71735;BME280;59577;52.122;5.406;2023-02-28T05:11:34;103293.16;;;1.29;81.40
71735;BME280;59577;52.122;5.406;2023-02-28T05:14:09;103283.63;;;1.21;81.85
71735;BME280;59577;52.122;5.406;2023-02-28T05:16:36;103291.72;;;1.15;82.40
71735;BME280;59577;52.122;5.406;2023-02-28T05:19:03;103289.72;;;1.10;82.99
71735;BME280;59577;52.122;5.406;2023-02-28T05:21:32;103301.91;;;1.06;83.66
71735;BME280;59577;52.122;5.406;2023-02-28T05:24:02;103309.19;;;0.99;83.90
71735;BME280;59577;52.122;5.406;2023-02-28T05:26:29;103308.22;;;0.93;84.28
71735;BME280;59577;52.122;5.406;2023-02-28T05:28:56;103309.25;;;0.92;84.66
71735;BME280;59577;52.122;5.406;2023-02-28T05:31:23;103302.66;;;0.94;85.25
71735;BME280;59577;52.122;5.406;2023-02-28T05:33:50;103308.13;;;1.00;85.71
71735;BME280;59577;52.122;5.406;2023-02-28T05:36:17;103294.00;;;0.99;85.96
71735;BME280;59577;52.122;5.406;2023-02-28T05:38:46;103301.75;;;1.01;86.12
71735;BME280;59577;52.122;5.406;2023-02-28T05:41:13;103300.50;;;1.03;86.44
71735;BME280;59577;52.122;5.406;2023-02-28T05:43:40;103296.78;;;1.04;86.39
71735;BME280;59577;52.122;5.406;2023-02-28T05:46:08;103297.16;;;1.08;86.62
71735;BME280;59577;52.122;5.406;2023-02-28T05:48:36;103299.38;;;1.11;86.73
71735;BME280;59577;52.122;5.406;2023-02-28T05:51:05;103306.53;;;1.10;86.88
71735;BME280;59577;52.122;5.406;2023-02-28T05:53:32;103298.31;;;1.12;86.90
71735;BME280;59577;52.122;5.406;2023-02-28T05:55:59;103299.38;;;1.11;87.20
71735;BME280;59577;52.122;5.406;2023-02-28T05:58:26;103307.16;;;1.12;87.26
71735;BME280;59577;52.122;5.406;2023-02-28T06:01:00;103302.41;;;1.15;87.56
71735;BME280;59577;52.122;5.406;2023-02-28T06:03:27;103291.72;;;1.15;87.77
71735;BME280;59577;52.122;5.406;2023-02-28T06:05:54;103304.22;;;1.14;88.15
71735;BME280;59577;52.122;5.406;2023-02-28T06:08:20;103301.56;;;1.14;88.23
71735;BME280;59577;52.122;5.406;2023-02-28T06:10:47;103297.06;;;1.15;88.17
71735;BME280;59577;52.122;5.406;2023-02-28T06:13:13;103298.69;;;1.16;88.61
71735;BME280;59577;52.122;5.406;2023-02-28T06:15:40;103297.19;;;1.20;88.80
71735;BME280;59577;52.122;5.406;2023-02-28T06:18:07;103295.69;;;1.24;88.76
71735;BME280;59577;52.122;5.406;2023-02-28T06:20:33;103302.44;;;1.26;89.04
71735;BME280;59577;52.122;5.406;2023-02-28T06:23:00;103295.03;;;1.28;89.28
71735;BME280;59577;52.122;5.406;2023-02-28T06:25:27;103294.56;;;1.31;88.90
71735;BME280;59577;52.122;5.406;2023-02-28T06:27:55;103287.16;;;1.34;88.81
71735;BME280;59577;52.122;5.406;2023-02-28T06:30:22;103282.41;;;1.36;88.79
71735;BME280;59577;52.122;5.406;2023-02-28T06:32:53;103289.34;;;1.37;88.86
71735;BME280;59577;52.122;5.406;2023-02-28T06:35:22;103300.50;;;1.34;89.24
71735;BME280;59577;52.122;5.406;2023-02-28T06:37:48;103297.00;;;1.33;89.06
71735;BME280;59577;52.122;5.406;2023-02-28T06:40:15;103299.91;;;1.31;89.46
71735;BME280;59577;52.122;5.406;2023-02-28T06:42:41;103302.81;;;1.30;89.18
71735;BME280;59577;52.122;5.406;2023-02-28T06:45:09;103291.31;;;1.29;89.34
71735;BME280;59577;52.122;5.406;2023-02-28T06:47:38;103294.19;;;1.28;89.38
71735;BME280;59577;52.122;5.406;2023-02-28T06:50:06;103293.16;;;1.29;89.51
71735;BME280;59577;52.122;5.406;2023-02-28T06:52:34;103285.97;;;1.29;89.51
71735;BME280;59577;52.122;5.406;2023-02-28T06:55:06;103288.63;;;1.29;89.39
71735;BME280;59577;52.122;5.406;2023-02-28T06:57:35;103300.94;;;1.30;89.90
71735;BME280;59577;52.122;5.406;2023-02-28T07:00:07;103299.31;;;1.29;90.09
71735;BME280;59577;52.122;5.406;2023-02-28T07:02:35;103300.72;;;1.32;90.16
71735;BME280;59577;52.122;5.406;2023-02-28T07:05:02;103309.53;;;1.33;89.88
71735;BME280;59577;52.122;5.406;2023-02-28T07:07:29;103307.31;;;1.29;90.21
71735;BME280;59577;52.122;5.406;2023-02-28T07:09:56;103305.13;;;1.26;90.30
71735;BME280;59577;52.122;5.406;2023-02-28T07:12:22;103316.00;;;1.25;90.43
71735;BME280;59577;52.122;5.406;2023-02-28T07:14:49;103318.69;;;1.25;90.31
71735;BME280;59577;52.122;5.406;2023-02-28T07:17:15;103313.56;;;1.23;90.44
71735;BME280;59577;52.122;5.406;2023-02-28T07:19:42;103311.25;;;1.27;90.66
71735;BME280;59577;52.122;5.406;2023-02-28T07:22:09;103314.88;;;1.33;90.67
71735;BME280;59577;52.122;5.406;2023-02-28T07:24:35;103311.75;;;1.36;90.86
71735;BME280;59577;52.122;5.406;2023-02-28T07:27:02;103319.75;;;1.36;91.04
71735;BME280;59577;52.122;5.406;2023-02-28T07:29:29;103315.22;;;1.36;91.06
71735;BME280;59577;52.122;5.406;2023-02-28T07:31:56;103324.16;;;1.30;90.92
71735;BME280;59577;52.122;5.406;2023-02-28T07:34:22;103319.97;;;1.34;90.86
71735;BME280;59577;52.122;5.406;2023-02-28T07:36:52;103313.03;;;1.45;90.89
71735;BME280;59577;52.122;5.406;2023-02-28T07:39:21;103310.06;;;1.53;90.92
71735;BME280;59577;52.122;5.406;2023-02-28T07:41:48;103315.66;;;1.63;91.10
71735;BME280;59577;52.122;5.406;2023-02-28T07:44:14;103329.22;;;1.62;90.80
71735;BME280;59577;52.122;5.406;2023-02-28T07:46:41;103331.88;;;1.62;90.78
71735;BME280;59577;52.122;5.406;2023-02-28T07:49:07;103329.22;;;1.62;90.68
71735;BME280;59577;52.122;5.406;2023-02-28T07:51:34;103321.34;;;1.67;90.84
71735;BME280;59577;52.122;5.406;2023-02-28T07:54:01;103331.13;;;1.73;90.60
71735;BME280;59577;52.122;5.406;2023-02-28T07:56:27;103327.72;;;1.78;90.70
71735;BME280;59577;52.122;5.406;2023-02-28T07:58:54;103318.81;;;1.84;90.98
71735;BME280;59577;52.122;5.406;2023-02-28T08:01:21;103328.69;;;1.95;90.92
71735;BME280;59577;52.122;5.406;2023-02-28T08:03:48;103318.13;;;2.00;90.50
71735;BME280;59577;52.122;5.406;2023-02-28T08:06:17;103335.56;;;2.03;89.96
71735;BME280;59577;52.122;5.406;2023-02-28T08:08:44;103341.00;;;2.08;89.88
71735;BME280;59577;52.122;5.406;2023-02-28T08:11:14;103349.25;;;2.06;89.48
71735;BME280;59577;52.122;5.406;2023-02-28T08:13:42;103347.03;;;2.03;89.74
71735;BME280;59577;52.122;5.406;2023-02-28T08:16:11;103346.47;;;2.01;89.48
71735;BME280;59577;52.122;5.406;2023-02-28T08:18:38;103342.75;;;1.91;89.62
71735;BME280;59577;52.122;5.406;2023-02-28T08:21:07;103352.47;;;1.85;89.57
71735;BME280;59577;52.122;5.406;2023-02-28T08:23:33;103362.34;;;1.84;89.46
71735;BME280;59577;52.122;5.406;2023-02-28T08:26:00;103354.22;;;1.91;89.65
71735;BME280;59577;52.122;5.406;2023-02-28T08:28:26;103350.41;;;1.99;89.47
71735;BME280;59577;52.122;5.406;2023-02-28T08:30:53;103349.50;;;2.05;89.98
71735;BME280;59577;52.122;5.406;2023-02-28T08:33:20;103355.63;;;2.05;89.39
71735;BME280;59577;52.122;5.406;2023-02-28T08:35:47;103346.81;;;2.05;89.39
71735;BME280;59577;52.122;5.406;2023-02-28T08:38:13;103342.41;;;2.11;89.03
71735;BME280;59577;52.122;5.406;2023-02-28T08:40:40;103345.75;;;2.18;89.03
71735;BME280;59577;52.122;5.406;2023-02-28T08:43:07;103348.78;;;2.21;88.62
71735;BME280;59577;52.122;5.406;2023-02-28T08:45:33;103342.19;;;2.24;88.50
71735;BME280;59577;52.122;5.406;2023-02-28T08:48:00;103344.38;;;2.27;87.43
71735;BME280;59577;52.122;5.406;2023-02-28T08:50:27;103340.41;;;2.30;86.15
71735;BME280;59577;52.122;5.406;2023-02-28T08:52:53;103336.00;;;2.35;85.68
71735;BME280;59577;52.122;5.406;2023-02-28T08:55:20;103332.63;;;2.40;84.88
71735;BME280;59577;52.122;5.406;2023-02-28T08:57:46;103331.81;;;2.51;83.97
71735;BME280;59577;52.122;5.406;2023-02-28T09:00:13;103340.88;;;2.62;83.31
71735;BME280;59577;52.122;5.406;2023-02-28T09:02:40;103343.84;;;2.77;82.46
71735;BME280;59577;52.122;5.406;2023-02-28T09:05:09;103335.38;;;2.80;80.67
71735;BME280;59577;52.122;5.406;2023-02-28T09:07:36;103342.16;;;3.00;79.68
71735;BME280;59577;52.122;5.406;2023-02-28T09:10:02;103339.19;;;3.42;79.10
71735;BME280;59577;52.122;5.406;2023-02-28T09:12:33;103328.59;;;3.81;77.58
71735;BME280;59577;52.122;5.406;2023-02-28T09:15:01;103330.16;;;4.50;75.05
71735;BME280;59577;52.122;5.406;2023-02-28T09:17:27;103340.53;;;5.13;72.19
71735;BME280;59577;52.122;5.406;2023-02-28T09:19:56;103346.16;;;5.98;68.03
71735;BME280;59577;52.122;5.406;2023-02-28T09:22:23;103337.97;;;5.88;63.91
71735;BME280;59577;52.122;5.406;2023-02-28T09:24:50;103338.97;;;5.76;61.63
71735;BME280;59577;52.122;5.406;2023-02-28T09:27:16;103327.34;;;5.98;61.77
71735;BME280;59577;52.122;5.406;2023-02-28T09:29:43;103335.28;;;6.20;60.04
71735;BME280;59577;52.122;5.406;2023-02-28T09:32:09;103339.34;;;6.28;56.85
71735;BME280;59577;52.122;5.406;2023-02-28T09:34:35;103337.44;;;6.18;56.99
71735;BME280;59577;52.122;5.406;2023-02-28T09:37:03;103342.25;;;6.21;57.38
71735;BME280;59577;52.122;5.406;2023-02-28T09:39:29;103340.41;;;6.80;56.00
71735;BME280;59577;52.122;5.406;2023-02-28T09:41:56;103344.88;;;7.32;54.11
71735;BME280;59577;52.122;5.406;2023-02-28T09:44:31;103349.69;;;8.27;50.35
71735;BME280;59577;52.122;5.406;2023-02-28T09:47:32;103345.69;;;7.38;49.71
71735;BME280;59577;52.122;5.406;2023-02-28T09:50:16;103345.69;;;6.59;49.10
71735;BME280;59577;52.122;5.406;2023-02-28T09:52:45;103343.41;;;6.30;50.46
71735;BME280;59577;52.122;5.406;2023-02-28T09:57:57;103348.06;;;6.02;50.33
71735;BME280;59577;52.122;5.406;2023-02-28T10:00:33;103346.59;;;5.90;49.58
71735;BME280;59577;52.122;5.406;2023-02-28T10:03:04;103356.84;;;5.93;50.65
71735;BME280;59577;52.122;5.406;2023-02-28T10:05:39;103345.47;;;5.80;48.65
71735;BME280;59577;52.122;5.406;2023-02-28T10:08:19;103344.44;;;5.87;49.50
71735;BME280;59577;52.122;5.406;2023-02-28T10:10:55;103351.59;;;5.76;46.98
71735;BME280;59577;52.122;5.406;2023-02-28T10:16:29;103341.09;;;5.74;46.56
71735;BME280;59577;52.122;5.406;2023-02-28T10:19:06;103332.31;;;6.74;45.81
71735;BME280;59577;52.122;5.406;2023-02-28T10:21:41;103328.69;;;7.63;45.34
71735;BME280;59577;52.122;5.406;2023-02-28T10:27:00;103314.03;;;8.46;42.07
71735;BME280;59577;52.122;5.406;2023-02-28T10:29:28;103314.28;;;9.04;44.04
71735;BME280;59577;52.122;5.406;2023-02-28T10:32:00;103325.31;;;9.08;40.11
71735;BME280;59577;52.122;5.406;2023-02-28T10:34:28;103318.34;;;8.42;39.92
71735;BME280;59577;52.122;5.406;2023-02-28T10:36:55;103320.88;;;7.87;39.28
71735;BME280;59577;52.122;5.406;2023-02-28T10:39:45;103320.06;;;7.40;41.78
71735;BME280;59577;52.122;5.406;2023-02-28T10:44:46;103326.56;;;7.70;41.05
71735;BME280;59577;52.122;5.406;2023-02-28T10:47:16;103322.97;;;8.31;40.62
71735;BME280;59577;52.122;5.406;2023-02-28T10:49:48;103329.78;;;7.87;40.28
71735;BME280;59577;52.122;5.406;2023-02-28T10:52:33;103323.59;;;7.66;40.25
71735;BME280;59577;52.122;5.406;2023-02-28T10:55:24;103314.19;;;8.70;42.79
71735;BME280;59577;52.122;5.406;2023-02-28T10:57:52;103309.41;;;9.75;40.33
71735;BME280;59577;52.122;5.406;2023-02-28T11:00:24;103308.31;;;9.08;38.55
71735;BME280;59577;52.122;5.406;2023-02-28T11:02:51;103304.66;;;8.88;39.17
71735;BME280;59577;52.122;5.406;2023-02-28T11:05:32;103313.44;;;9.49;38.22
71735;BME280;59577;52.122;5.406;2023-02-28T11:08:12;103300.50;;;9.75;37.21
71735;BME280;59577;52.122;5.406;2023-02-28T11:10:46;103297.72;;;9.16;38.18
71735;BME280;59577;52.122;5.406;2023-02-28T11:13:20;103299.72;;;9.00;39.49
71735;BME280;59577;52.122;5.406;2023-02-28T11:15:52;103295.50;;;8.79;39.24
71735;BME280;59577;52.122;5.406;2023-02-28T11:21:02;103279.84;;;8.86;40.90
71735;BME280;59577;52.122;5.406;2023-02-28T11:23:32;103295.19;;;9.30;39.16
71735;BME280;59577;52.122;5.406;2023-02-28T11:26:04;103282.88;;;8.74;38.39
71735;BME280;59577;52.122;5.406;2023-02-28T11:28:39;103283.22;;;9.07;39.05
71735;BME280;59577;52.122;5.406;2023-02-28T11:33:53;103275.03;;;10.72;37.76
71735;BME280;59577;52.122;5.406;2023-02-28T11:38:55;103280.38;;;10.97;35.52
71735;BME280;59577;52.122;5.406;2023-02-28T11:41:31;103265.16;;;10.63;36.13
71735;BME280;59577;52.122;5.406;2023-02-28T11:44:23;103281.25;;;11.30;36.40
71735;BME280;59577;52.122;5.406;2023-02-28T11:46:58;103259.38;;;11.07;34.65
71735;BME280;59577;52.122;5.406;2023-02-28T11:49:41;103273.94;;;11.12;35.65
71735;BME280;59577;52.122;5.406;2023-02-28T11:52:29;103262.09;;;11.40;35.57
71735;BME280;59577;52.122;5.406;2023-02-28T11:57:53;103270.34;;;11.49;36.36
71735;BME280;59577;52.122;5.406;2023-02-28T12:06:01;103260.38;;;11.12;33.74
71735;BME280;59577;52.122;5.406;2023-02-28T12:17:41;103252.63;;;9.12;38.58
71735;BME280;59577;52.122;5.406;2023-02-28T12:23:25;103250.44;;;8.14;38.16
71735;BME280;59577;52.122;5.406;2023-02-28T12:28:21;103242.69;;;7.87;38.61
71735;BME280;59577;52.122;5.406;2023-02-28T12:31:04;103240.56;;;7.74;39.33
71735;BME280;59577;52.122;5.406;2023-02-28T12:33:35;103240.03;;;7.66;39.28
71735;BME280;59577;52.122;5.406;2023-02-28T12:36:11;103236.81;;;7.44;39.26
71735;BME280;59577;52.122;5.406;2023-02-28T12:38:48;103231.41;;;7.64;39.80
71735;BME280;59577;52.122;5.406;2023-02-28T12:41:19;103235.19;;;7.74;40.16
71735;BME280;59577;52.122;5.406;2023-02-28T12:43:55;103231.41;;;7.44;39.97
71735;BME280;59577;52.122;5.406;2023-02-28T12:46:35;103239.25;;;7.20;39.31
71735;BME280;59577;52.122;5.406;2023-02-28T12:49:11;103240.06;;;7.20;40.74
71735;BME280;59577;52.122;5.406;2023-02-28T12:51:39;103228.75;;;7.18;40.73
71735;BME280;59577;52.122;5.406;2023-02-28T12:54:20;103218.78;;;7.13;40.41
71735;BME280;59577;52.122;5.406;2023-02-28T12:56:54;103223.63;;;7.06;40.65
71735;BME280;59577;52.122;5.406;2023-02-28T13:04:58;103215.56;;;7.01;40.82
71735;BME280;59577;52.122;5.406;2023-02-28T13:10:40;103209.03;;;6.76;40.80
71735;BME280;59577;52.122;5.406;2023-02-28T13:13:14;103207.13;;;6.62;40.74
71735;BME280;59577;52.122;5.406;2023-02-28T13:16:00;103207.94;;;6.62;40.52
71735;BME280;59577;52.122;5.406;2023-02-28T13:18:38;103207.69;;;6.69;41.45
71735;BME280;59577;52.122;5.406;2023-02-28T13:21:08;103209.31;;;6.70;41.82
71735;BME280;59577;52.122;5.406;2023-02-28T13:26:07;103207.63;;;6.48;40.39
71735;BME280;59577;52.122;5.406;2023-02-28T13:31:21;103205.13;;;6.26;41.25
71735;BME280;59577;52.122;5.406;2023-02-28T13:38:55;103194.41;;;6.36;41.69
71735;BME280;59577;52.122;5.406;2023-02-28T13:44:15;103201.72;;;6.51;42.21
71735;BME280;59577;52.122;5.406;2023-02-28T13:49:26;103192.00;;;6.40;42.05
71735;BME280;59577;52.122;5.406;2023-02-28T13:58:07;103180.47;;;6.45;41.75
71735;BME280;59577;52.122;5.406;2023-02-28T14:06:18;103173.78;;;6.57;40.97
71735;BME280;59577;52.122;5.406;2023-02-28T14:11:53;103172.69;;;6.58;40.70
71735;BME280;59577;52.122;5.406;2023-02-28T14:17:21;103163.28;;;6.61;40.66
71735;BME280;59577;52.122;5.406;2023-02-28T14:19:48;103167.03;;;6.60;41.24
71735;BME280;59577;52.122;5.406;2023-02-28T14:22:32;103168.09;;;6.64;40.86
71735;BME280;59577;52.122;5.406;2023-02-28T14:25:28;103163.00;;;6.68;41.28
71735;BME280;59577;52.122;5.406;2023-02-28T14:28:26;103158.97;;;6.60;40.87
71735;BME280;59577;52.122;5.406;2023-02-28T14:31:01;103160.84;;;6.54;41.51
71735;BME280;59577;52.122;5.406;2023-02-28T14:33:57;103156.81;;;6.62;42.36
71735;BME280;59577;52.122;5.406;2023-02-28T14:36:35;103151.69;;;6.61;41.71
71735;BME280;59577;52.122;5.406;2023-02-28T14:39:22;103150.63;;;6.62;43.00
71735;BME280;59577;52.122;5.406;2023-02-28T14:41:48;103156.53;;;6.58;42.35
71735;BME280;59577;52.122;5.406;2023-02-28T14:44:24;103154.38;;;6.50;41.22
71735;BME280;59577;52.122;5.406;2023-02-28T14:47:02;103145.22;;;6.51;42.94
71735;BME280;59577;52.122;5.406;2023-02-28T14:49:52;103150.34;;;6.58;42.26
71735;BME280;59577;52.122;5.406;2023-02-28T14:52:23;103140.66;;;6.52;42.26
71735;BME280;59577;52.122;5.406;2023-02-28T14:57:33;103150.59;;;6.51;42.63
71735;BME280;59577;52.122;5.406;2023-02-28T15:00:20;103148.97;;;6.45;41.79
71735;BME280;59577;52.122;5.406;2023-02-28T15:02:47;103151.13;;;6.43;41.80
71735;BME280;59577;52.122;5.406;2023-02-28T15:07:44;103147.63;;;6.37;42.44
71735;BME280;59577;52.122;5.406;2023-02-28T15:10:24;103148.16;;;6.39;42.46
71735;BME280;59577;52.122;5.406;2023-02-28T15:12:52;103155.44;;;6.39;42.31
71735;BME280;59577;52.122;5.406;2023-02-28T15:15:20;103141.97;;;6.34;41.64
71735;BME280;59577;52.122;5.406;2023-02-28T15:18:02;103149.25;;;6.33;41.76
71735;BME280;59577;52.122;5.406;2023-02-28T15:20:32;103146.25;;;6.30;41.96
71735;BME280;59577;52.122;5.406;2023-02-28T15:22:59;103145.72;;;6.33;42.70
71735;BME280;59577;52.122;5.406;2023-02-28T15:25:26;103150.03;;;6.34;42.97